sensor_id;sensor_type;location;lat;lon;timestamp;P1;durP1;ratioP1;P2;durP2;ratioP2
75413;SDS011;64758;52.122;5.404;2023-04-03T00:02:00;2.23;;;0.50;;
75413;SDS011;64758;52.122;5.404;2023-04-03T00:04:27;1.65;;;0.30;;
75413;SDS011;64758;52.122;5.404;2023-04-03T00:06:54;1.83;;;0.40;;
75413;SDS011;64758;52.122;5.404;2023-04-03T00:09:20;1.02;;;0.30;;
75413;SDS011;64758;52.122;5.404;2023-04-03T00:11:47;2.55;;;0.38;;
75413;SDS011;64758;52.122;5.404;2023-04-03T00:14:13;2.40;;;0.60;;
75413;SDS011;64758;52.122;5.404;2023-04-03T00:16:40;2.70;;;0.40;;
75413;SDS011;64758;52.122;5.404;2023-04-03T00:19:07;3.17;;;0.55;;
75413;SDS011;64758;52.122;5.404;2023-04-03T00:21:33;1.85;;;0.40;;
75413;SDS011;64758;52.122;5.404;2023-04-03T00:24:00;1.00;;;0.40;;
75413;SDS011;64758;52.122;5.404;2023-04-03T00:26:26;1.47;;;0.50;;
75413;SDS011;64758;52.122;5.404;2023-04-03T00:28:53;2.00;;;0.40;;
75413;SDS011;64758;52.122;5.404;2023-04-03T00:31:19;2.25;;;0.35;;
75413;SDS011;64758;52.122;5.404;2023-04-03T00:33:46;3.63;;;0.40;;
75413;SDS011;64758;52.122;5.404;2023-04-03T00:36:13;2.03;;;0.50;;
75413;SDS011;64758;52.122;5.404;2023-04-03T00:38:40;2.10;;;0.50;;
75413;SDS011;64758;52.122;5.404;2023-04-03T00:41:06;1.92;;;0.30;;
75413;SDS011;64758;52.122;5.404;2023-04-03T00:43:33;2.78;;;0.52;;
75413;SDS011;64758;52.122;5.404;2023-04-03T00:46:00;2.17;;;0.43;;
75413;SDS011;64758;52.122;5.404;2023-04-03T00:51:05;1.67;;;0.33;;
75413;SDS011;64758;52.122;5.404;2023-04-03T00:53:37;1.98;;;0.40;;
75413;SDS011;64758;52.122;5.404;2023-04-03T00:56:09;2.42;;;0.60;;
75413;SDS011;64758;52.122;5.404;2023-04-03T00:58:40;1.40;;;0.30;;
75413;SDS011;64758;52.122;5.404;2023-04-03T01:01:29;1.85;;;0.40;;
75413;SDS011;64758;52.122;5.404;2023-04-03T01:03:58;1.00;;;0.40;;
75413;SDS011;64758;52.122;5.404;2023-04-03T01:06:27;1.13;;;0.40;;
75413;SDS011;64758;52.122;5.404;2023-04-03T01:08:59;0.60;;;0.30;;
75413;SDS011;64758;52.122;5.404;2023-04-03T01:11:27;3.25;;;1.08;;
75413;SDS011;64758;52.122;5.404;2023-04-03T01:13:53;1.83;;;0.40;;
75413;SDS011;64758;52.122;5.404;2023-04-03T01:16:20;3.20;;;0.43;;
75413;SDS011;64758;52.122;5.404;2023-04-03T01:18:47;2.45;;;0.50;;
75413;SDS011;64758;52.122;5.404;2023-04-03T01:26:18;2.40;;;0.35;;
75413;SDS011;64758;52.122;5.404;2023-04-03T01:28:46;1.17;;;0.50;;
75413;SDS011;64758;52.122;5.404;2023-04-03T01:33:53;1.90;;;0.50;;
75413;SDS011;64758;52.122;5.404;2023-04-03T01:36:24;1.50;;;0.40;;
75413;SDS011;64758;52.122;5.404;2023-04-03T01:38:54;3.25;;;0.60;;
75413;SDS011;64758;52.122;5.404;2023-04-03T01:41:22;1.77;;;0.60;;
75413;SDS011;64758;52.122;5.404;2023-04-03T01:43:48;1.63;;;0.50;;
75413;SDS011;64758;52.122;5.404;2023-04-03T01:46:16;3.00;;;0.50;;
75413;SDS011;64758;52.122;5.404;2023-04-03T01:48:43;2.08;;;0.90;;
75413;SDS011;64758;52.122;5.404;2023-04-03T01:51:10;2.50;;;0.60;;
75413;SDS011;64758;52.122;5.404;2023-04-03T01:53:36;3.73;;;0.40;;
75413;SDS011;64758;52.122;5.404;2023-04-03T01:56:03;3.30;;;0.70;;
75413;SDS011;64758;52.122;5.404;2023-04-03T01:58:30;3.65;;;0.50;;
75413;SDS011;64758;52.122;5.404;2023-04-03T02:00:57;3.10;;;0.70;;
75413;SDS011;64758;52.122;5.404;2023-04-03T02:03:23;3.83;;;0.60;;
75413;SDS011;64758;52.122;5.404;2023-04-03T02:05:50;1.43;;;0.37;;
75413;SDS011;64758;52.122;5.404;2023-04-03T02:08:16;1.20;;;0.30;;
75413;SDS011;64758;52.122;5.404;2023-04-03T02:10:47;1.85;;;0.68;;
75413;SDS011;64758;52.122;5.404;2023-04-03T02:13:14;1.80;;;0.63;;
75413;SDS011;64758;52.122;5.404;2023-04-03T02:15:41;5.50;;;0.73;;
75413;SDS011;64758;52.122;5.404;2023-04-03T02:18:08;1.87;;;0.50;;
75413;SDS011;64758;52.122;5.404;2023-04-03T02:20:35;2.47;;;0.52;;
75413;SDS011;64758;52.122;5.404;2023-04-03T02:23:02;2.15;;;0.57;;
75413;SDS011;64758;52.122;5.404;2023-04-03T02:25:32;2.80;;;0.45;;
75413;SDS011;64758;52.122;5.404;2023-04-03T02:28:03;2.30;;;0.80;;
75413;SDS011;64758;52.122;5.404;2023-04-03T02:30:30;3.17;;;0.60;;
75413;SDS011;64758;52.122;5.404;2023-04-03T02:32:56;2.42;;;0.70;;
75413;SDS011;64758;52.122;5.404;2023-04-03T02:35:23;1.52;;;0.38;;
75413;SDS011;64758;52.122;5.404;2023-04-03T02:37:50;1.95;;;0.55;;
75413;SDS011;64758;52.122;5.404;2023-04-03T02:40:17;1.23;;;0.50;;
75413;SDS011;64758;52.122;5.404;2023-04-03T02:42:43;1.70;;;0.47;;
75413;SDS011;64758;52.122;5.404;2023-04-03T02:45:10;2.92;;;0.60;;
75413;SDS011;64758;52.122;5.404;2023-04-03T02:47:36;1.75;;;0.68;;
75413;SDS011;64758;52.122;5.404;2023-04-03T02:50:03;2.58;;;0.43;;
75413;SDS011;64758;52.122;5.404;2023-04-03T02:52:30;2.35;;;0.60;;
75413;SDS011;64758;52.122;5.404;2023-04-03T02:54:56;1.93;;;0.30;;
75413;SDS011;64758;52.122;5.404;2023-04-03T02:57:23;3.55;;;0.60;;
75413;SDS011;64758;52.122;5.404;2023-04-03T02:59:49;1.98;;;0.60;;
75413;SDS011;64758;52.122;5.404;2023-04-03T03:02:16;1.45;;;0.60;;
75413;SDS011;64758;52.122;5.404;2023-04-03T03:04:42;1.80;;;0.52;;
75413;SDS011;64758;52.122;5.404;2023-04-03T03:07:09;1.00;;;0.40;;
75413;SDS011;64758;52.122;5.404;2023-04-03T03:09:36;2.05;;;0.40;;
75413;SDS011;64758;52.122;5.404;2023-04-03T03:12:02;1.38;;;0.40;;
75413;SDS011;64758;52.122;5.404;2023-04-03T03:14:29;1.15;;;0.40;;
75413;SDS011;64758;52.122;5.404;2023-04-03T03:16:56;1.55;;;0.40;;
75413;SDS011;64758;52.122;5.404;2023-04-03T03:19:22;3.37;;;0.63;;
75413;SDS011;64758;52.122;5.404;2023-04-03T03:21:49;2.13;;;0.40;;
75413;SDS011;64758;52.122;5.404;2023-04-03T03:24:16;1.65;;;0.57;;
75413;SDS011;64758;52.122;5.404;2023-04-03T03:26:42;1.80;;;0.60;;
75413;SDS011;64758;52.122;5.404;2023-04-03T03:29:09;3.63;;;0.60;;
75413;SDS011;64758;52.122;5.404;2023-04-03T03:31:36;3.03;;;0.50;;
75413;SDS011;64758;52.122;5.404;2023-04-03T03:34:02;2.08;;;0.55;;
75413;SDS011;64758;52.122;5.404;2023-04-03T03:36:29;3.13;;;0.40;;
75413;SDS011;64758;52.122;5.404;2023-04-03T03:38:55;2.10;;;0.55;;
75413;SDS011;64758;52.122;5.404;2023-04-03T03:41:22;2.10;;;0.60;;
75413;SDS011;64758;52.122;5.404;2023-04-03T03:43:49;1.90;;;0.67;;
75413;SDS011;64758;52.122;5.404;2023-04-03T03:46:15;3.13;;;0.80;;
75413;SDS011;64758;52.122;5.404;2023-04-03T03:48:42;4.38;;;0.60;;
75413;SDS011;64758;52.122;5.404;2023-04-03T03:51:08;1.63;;;0.60;;
75413;SDS011;64758;52.122;5.404;2023-04-03T03:53:35;2.90;;;0.57;;
75413;SDS011;64758;52.122;5.404;2023-04-03T03:56:01;2.27;;;0.97;;
75413;SDS011;64758;52.122;5.404;2023-04-03T03:58:28;3.10;;;0.57;;
75413;SDS011;64758;52.122;5.404;2023-04-03T04:00:54;1.23;;;0.50;;
75413;SDS011;64758;52.122;5.404;2023-04-03T04:03:21;1.35;;;0.52;;
75413;SDS011;64758;52.122;5.404;2023-04-03T04:05:48;1.05;;;0.43;;
75413;SDS011;64758;52.122;5.404;2023-04-03T04:08:14;4.63;;;0.80;;
75413;SDS011;64758;52.122;5.404;2023-04-03T04:10:41;1.75;;;0.60;;
75413;SDS011;64758;52.122;5.404;2023-04-03T04:13:07;1.70;;;0.70;;
75413;SDS011;64758;52.122;5.404;2023-04-03T04:15:34;2.83;;;0.55;;
75413;SDS011;64758;52.122;5.404;2023-04-03T04:18:01;2.38;;;0.70;;
75413;SDS011;64758;52.122;5.404;2023-04-03T04:20:28;3.50;;;0.73;;
75413;SDS011;64758;52.122;5.404;2023-04-03T04:22:54;2.95;;;0.98;;
75413;SDS011;64758;52.122;5.404;2023-04-03T04:25:21;3.05;;;0.80;;
75413;SDS011;64758;52.122;5.404;2023-04-03T04:27:47;1.35;;;0.50;;
75413;SDS011;64758;52.122;5.404;2023-04-03T04:30:14;3.13;;;1.05;;
75413;SDS011;64758;52.122;5.404;2023-04-03T04:32:41;2.43;;;0.70;;
75413;SDS011;64758;52.122;5.404;2023-04-03T04:35:08;1.60;;;0.73;;
75413;SDS011;64758;52.122;5.404;2023-04-03T04:37:34;2.42;;;0.70;;
75413;SDS011;64758;52.122;5.404;2023-04-03T04:40:01;1.98;;;0.70;;
75413;SDS011;64758;52.122;5.404;2023-04-03T04:42:28;3.22;;;0.80;;
75413;SDS011;64758;52.122;5.404;2023-04-03T04:44:54;2.13;;;0.80;;
75413;SDS011;64758;52.122;5.404;2023-04-03T04:47:21;3.42;;;0.65;;
75413;SDS011;64758;52.122;5.404;2023-04-03T04:49:47;3.42;;;0.82;;
75413;SDS011;64758;52.122;5.404;2023-04-03T04:52:14;2.47;;;0.93;;
75413;SDS011;64758;52.122;5.404;2023-04-03T04:54:40;2.10;;;0.80;;
75413;SDS011;64758;52.122;5.404;2023-04-03T04:57:07;4.33;;;0.87;;
75413;SDS011;64758;52.122;5.404;2023-04-03T04:59:33;2.03;;;0.80;;
75413;SDS011;64758;52.122;5.404;2023-04-03T05:02:00;1.98;;;0.70;;
75413;SDS011;64758;52.122;5.404;2023-04-03T05:04:27;2.88;;;0.68;;
75413;SDS011;64758;52.122;5.404;2023-04-03T05:06:54;1.73;;;0.80;;
75413;SDS011;64758;52.122;5.404;2023-04-03T05:09:20;1.77;;;0.83;;
75413;SDS011;64758;52.122;5.404;2023-04-03T05:11:47;3.67;;;1.00;;
75413;SDS011;64758;52.122;5.404;2023-04-03T05:14:13;5.35;;;0.90;;
75413;SDS011;64758;52.122;5.404;2023-04-03T05:16:40;3.30;;;1.08;;
75413;SDS011;64758;52.122;5.404;2023-04-03T05:19:07;1.90;;;0.88;;
75413;SDS011;64758;52.122;5.404;2023-04-03T05:21:33;2.77;;;0.70;;
75413;SDS011;64758;52.122;5.404;2023-04-03T05:24:00;2.47;;;0.50;;
75413;SDS011;64758;52.122;5.404;2023-04-03T05:26:30;3.45;;;0.73;;
75413;SDS011;64758;52.122;5.404;2023-04-03T05:28:57;2.70;;;0.70;;
75413;SDS011;64758;52.122;5.404;2023-04-03T05:31:24;4.28;;;0.88;;
75413;SDS011;64758;52.122;5.404;2023-04-03T05:33:51;5.50;;;1.10;;
75413;SDS011;64758;52.122;5.404;2023-04-03T05:36:17;2.17;;;0.70;;
75413;SDS011;64758;52.122;5.404;2023-04-03T05:38:44;5.00;;;0.93;;
75413;SDS011;64758;52.122;5.404;2023-04-03T05:41:11;2.42;;;0.82;;
75413;SDS011;64758;52.122;5.404;2023-04-03T05:43:38;3.63;;;0.80;;
75413;SDS011;64758;52.122;5.404;2023-04-03T05:46:11;2.20;;;0.90;;
75413;SDS011;64758;52.122;5.404;2023-04-03T05:48:39;2.97;;;0.75;;
75413;SDS011;64758;52.122;5.404;2023-04-03T05:51:06;3.28;;;0.90;;
75413;SDS011;64758;52.122;5.404;2023-04-03T05:53:34;2.97;;;0.80;;
75413;SDS011;64758;52.122;5.404;2023-04-03T05:56:05;2.45;;;0.85;;
75413;SDS011;64758;52.122;5.404;2023-04-03T05:58:31;2.33;;;0.53;;
75413;SDS011;64758;52.122;5.404;2023-04-03T06:00:58;4.15;;;0.60;;
75413;SDS011;64758;52.122;5.404;2023-04-03T06:03:25;4.10;;;0.82;;
75413;SDS011;64758;52.122;5.404;2023-04-03T06:05:51;2.05;;;0.57;;
75413;SDS011;64758;52.122;5.404;2023-04-03T06:08:18;6.13;;;0.85;;
75413;SDS011;64758;52.122;5.404;2023-04-03T06:10:45;4.13;;;0.97;;
75413;SDS011;64758;52.122;5.404;2023-04-03T06:13:12;7.10;;;1.10;;
75413;SDS011;64758;52.122;5.404;2023-04-03T06:15:39;3.28;;;0.70;;
75413;SDS011;64758;52.122;5.404;2023-04-03T06:18:06;4.10;;;0.90;;
75413;SDS011;64758;52.122;5.404;2023-04-03T06:20:33;3.22;;;0.50;;
75413;SDS011;64758;52.122;5.404;2023-04-03T06:22:59;4.07;;;0.90;;
75413;SDS011;64758;52.122;5.404;2023-04-03T06:25:26;4.80;;;0.90;;
75413;SDS011;64758;52.122;5.404;2023-04-03T06:27:53;4.47;;;1.20;;
75413;SDS011;64758;52.122;5.404;2023-04-03T06:30:21;2.83;;;0.65;;
75413;SDS011;64758;52.122;5.404;2023-04-03T06:32:48;2.60;;;1.25;;
75413;SDS011;64758;52.122;5.404;2023-04-03T06:35:14;3.33;;;0.77;;
75413;SDS011;64758;52.122;5.404;2023-04-03T06:37:42;4.88;;;0.68;;
75413;SDS011;64758;52.122;5.404;2023-04-03T06:40:12;1.90;;;0.70;;
75413;SDS011;64758;52.122;5.404;2023-04-03T06:42:45;2.33;;;0.63;;
75413;SDS011;64758;52.122;5.404;2023-04-03T06:45:12;7.53;;;0.93;;
75413;SDS011;64758;52.122;5.404;2023-04-03T06:47:38;2.70;;;0.77;;
75413;SDS011;64758;52.122;5.404;2023-04-03T06:50:05;5.97;;;0.85;;
75413;SDS011;64758;52.122;5.404;2023-04-03T06:52:32;4.90;;;0.65;;
75413;SDS011;64758;52.122;5.404;2023-04-03T06:54:59;4.30;;;0.75;;
75413;SDS011;64758;52.122;5.404;2023-04-03T06:57:26;1.60;;;0.68;;
75413;SDS011;64758;52.122;5.404;2023-04-03T06:59:53;4.07;;;0.60;;
75413;SDS011;64758;52.122;5.404;2023-04-03T07:02:19;2.78;;;0.60;;
75413;SDS011;64758;52.122;5.404;2023-04-03T07:04:47;4.93;;;0.80;;
75413;SDS011;64758;52.122;5.404;2023-04-03T07:07:14;2.35;;;0.75;;
75413;SDS011;64758;52.122;5.404;2023-04-03T07:09:41;5.40;;;1.23;;
75413;SDS011;64758;52.122;5.404;2023-04-03T07:12:10;3.43;;;0.90;;
75413;SDS011;64758;52.122;5.404;2023-04-03T07:14:37;3.45;;;0.60;;
75413;SDS011;64758;52.122;5.404;2023-04-03T07:17:03;4.82;;;1.00;;
75413;SDS011;64758;52.122;5.404;2023-04-03T07:19:30;2.10;;;0.70;;
75413;SDS011;64758;52.122;5.404;2023-04-03T07:21:57;3.33;;;1.00;;
75413;SDS011;64758;52.122;5.404;2023-04-03T07:24:24;1.63;;;0.80;;
75413;SDS011;64758;52.122;5.404;2023-04-03T07:26:50;2.35;;;0.88;;
75413;SDS011;64758;52.122;5.404;2023-04-03T07:29:18;2.13;;;0.68;;
75413;SDS011;64758;52.122;5.404;2023-04-03T07:31:47;2.05;;;0.60;;
75413;SDS011;64758;52.122;5.404;2023-04-03T07:34:14;2.42;;;1.00;;
75413;SDS011;64758;52.122;5.404;2023-04-03T07:36:41;5.03;;;0.70;;
75413;SDS011;64758;52.122;5.404;2023-04-03T07:39:07;5.53;;;0.75;;
75413;SDS011;64758;52.122;5.404;2023-04-03T07:41:34;4.22;;;0.85;;
75413;SDS011;64758;52.122;5.404;2023-04-03T07:44:01;6.80;;;0.80;;
75413;SDS011;64758;52.122;5.404;2023-04-03T07:46:28;3.67;;;1.17;;
75413;SDS011;64758;52.122;5.404;2023-04-03T07:48:55;1.77;;;0.57;;
75413;SDS011;64758;52.122;5.404;2023-04-03T07:51:23;2.83;;;0.60;;
75413;SDS011;64758;52.122;5.404;2023-04-03T07:53:50;3.55;;;0.60;;
75413;SDS011;64758;52.122;5.404;2023-04-03T07:56:17;2.15;;;0.70;;
75413;SDS011;64758;52.122;5.404;2023-04-03T07:58:43;1.83;;;0.52;;
75413;SDS011;64758;52.122;5.404;2023-04-03T08:01:11;5.57;;;0.97;;
75413;SDS011;64758;52.122;5.404;2023-04-03T08:03:38;4.30;;;0.68;;
75413;SDS011;64758;52.122;5.404;2023-04-03T08:06:06;2.10;;;0.68;;
75413;SDS011;64758;52.122;5.404;2023-04-03T08:08:40;1.23;;;0.55;;
75413;SDS011;64758;52.122;5.404;2023-04-03T08:11:07;6.53;;;1.10;;
75413;SDS011;64758;52.122;5.404;2023-04-03T08:13:34;1.93;;;0.40;;
75413;SDS011;64758;52.122;5.404;2023-04-03T08:16:12;2.60;;;0.70;;
75413;SDS011;64758;52.122;5.404;2023-04-03T08:18:42;1.98;;;0.50;;
75413;SDS011;64758;52.122;5.404;2023-04-03T08:21:09;2.53;;;0.40;;
75413;SDS011;64758;52.122;5.404;2023-04-03T08:23:37;3.28;;;0.55;;
75413;SDS011;64758;52.122;5.404;2023-04-03T08:26:06;2.77;;;0.70;;
75413;SDS011;64758;52.122;5.404;2023-04-03T08:28:37;1.40;;;0.50;;
75413;SDS011;64758;52.122;5.404;2023-04-03T08:31:05;3.38;;;0.50;;
75413;SDS011;64758;52.122;5.404;2023-04-03T08:33:33;3.88;;;0.45;;
75413;SDS011;64758;52.122;5.404;2023-04-03T08:36:03;1.85;;;0.45;;
75413;SDS011;64758;52.122;5.404;2023-04-03T08:38:30;2.30;;;0.30;;
75413;SDS011;64758;52.122;5.404;2023-04-03T08:44:02;1.30;;;0.30;;
75413;SDS011;64758;52.122;5.404;2023-04-03T08:46:42;2.63;;;0.40;;
75413;SDS011;64758;52.122;5.404;2023-04-03T08:49:16;2.25;;;0.50;;
75413;SDS011;64758;52.122;5.404;2023-04-03T08:51:50;2.20;;;0.33;;
75413;SDS011;64758;52.122;5.404;2023-04-03T08:54:28;1.23;;;0.30;;
75413;SDS011;64758;52.122;5.404;2023-04-03T08:57:02;1.23;;;0.20;;
75413;SDS011;64758;52.122;5.404;2023-04-03T08:59:35;3.50;;;0.30;;
75413;SDS011;64758;52.122;5.404;2023-04-03T09:02:09;0.93;;;0.30;;
75413;SDS011;64758;52.122;5.404;2023-04-03T09:04:48;1.23;;;0.20;;
75413;SDS011;64758;52.122;5.404;2023-04-03T09:07:16;0.45;;;0.20;;
75413;SDS011;64758;52.122;5.404;2023-04-03T09:10:14;1.05;;;0.20;;
75413;SDS011;64758;52.122;5.404;2023-04-03T09:12:46;0.70;;;0.20;;
75413;SDS011;64758;52.122;5.404;2023-04-03T09:15:19;2.00;;;0.20;;
75413;SDS011;64758;52.122;5.404;2023-04-03T09:21:13;1.92;;;0.20;;
75413;SDS011;64758;52.122;5.404;2023-04-03T09:23:50;1.52;;;0.20;;
75413;SDS011;64758;52.122;5.404;2023-04-03T09:26:24;0.43;;;0.20;;
75413;SDS011;64758;52.122;5.404;2023-04-03T09:28:55;0.70;;;0.10;;
75413;SDS011;64758;52.122;5.404;2023-04-03T09:31:47;0.90;;;0.20;;
75413;SDS011;64758;52.122;5.404;2023-04-03T09:36:51;2.15;;;0.20;;
75413;SDS011;64758;52.122;5.404;2023-04-03T09:39:20;1.20;;;0.15;;
75413;SDS011;64758;52.122;5.404;2023-04-03T09:41:59;0.60;;;0.30;;
75413;SDS011;64758;52.122;5.404;2023-04-03T09:44:33;0.40;;;0.17;;
75413;SDS011;64758;52.122;5.404;2023-04-03T09:47:19;0.40;;;0.30;;
75413;SDS011;64758;52.122;5.404;2023-04-03T09:49:45;2.15;;;0.20;;
75413;SDS011;64758;52.122;5.404;2023-04-03T09:52:25;1.15;;;0.20;;
75413;SDS011;64758;52.122;5.404;2023-04-03T09:54:52;0.80;;;0.10;;
75413;SDS011;64758;52.122;5.404;2023-04-03T09:57:19;0.40;;;0.20;;
75413;SDS011;64758;52.122;5.404;2023-04-03T09:59:47;1.33;;;0.10;;
75413;SDS011;64758;52.122;5.404;2023-04-03T10:05:00;0.65;;;0.20;;
75413;SDS011;64758;52.122;5.404;2023-04-03T10:07:34;0.55;;;0.20;;
75413;SDS011;64758;52.122;5.404;2023-04-03T10:10:16;1.33;;;0.10;;
75413;SDS011;64758;52.122;5.404;2023-04-03T10:13:03;0.50;;;0.10;;
75413;SDS011;64758;52.122;5.404;2023-04-03T10:15:56;0.93;;;0.20;;
75413;SDS011;64758;52.122;5.404;2023-04-03T10:24:19;0.93;;;0.10;;
75413;SDS011;64758;52.122;5.404;2023-04-03T10:29:40;0.85;;;0.20;;
75413;SDS011;64758;52.122;5.404;2023-04-03T10:35:06;0.85;;;0.20;;
75413;SDS011;64758;52.122;5.404;2023-04-03T10:43:36;1.13;;;0.20;;
75413;SDS011;64758;52.122;5.404;2023-04-03T10:54:25;0.82;;;0.20;;
75413;SDS011;64758;52.122;5.404;2023-04-03T10:57:01;0.80;;;0.20;;
75413;SDS011;64758;52.122;5.404;2023-04-03T10:59:45;0.65;;;0.13;;
75413;SDS011;64758;52.122;5.404;2023-04-03T11:02:20;1.75;;;0.20;;
75413;SDS011;64758;52.122;5.404;2023-04-03T11:05:00;0.50;;;0.20;;
75413;SDS011;64758;52.122;5.404;2023-04-03T11:07:37;1.45;;;0.30;;
75413;SDS011;64758;52.122;5.404;2023-04-03T11:10:10;0.65;;;0.20;;
75413;SDS011;64758;52.122;5.404;2023-04-03T11:12:48;0.52;;;0.28;;
75413;SDS011;64758;52.122;5.404;2023-04-03T11:15:22;1.00;;;0.30;;
75413;SDS011;64758;52.122;5.404;2023-04-03T11:17:54;1.03;;;0.20;;
75413;SDS011;64758;52.122;5.404;2023-04-03T11:20:26;1.63;;;0.30;;
75413;SDS011;64758;52.122;5.404;2023-04-03T11:23:14;1.15;;;0.25;;
75413;SDS011;64758;52.122;5.404;2023-04-03T11:25:44;1.13;;;0.40;;
75413;SDS011;64758;52.122;5.404;2023-04-03T11:28:16;1.08;;;0.30;;
75413;SDS011;64758;52.122;5.404;2023-04-03T11:31:01;1.17;;;0.23;;
75413;SDS011;64758;52.122;5.404;2023-04-03T11:36:12;2.55;;;0.30;;
75413;SDS011;64758;52.122;5.404;2023-04-03T11:39:24;1.20;;;0.20;;
75413;SDS011;64758;52.122;5.404;2023-04-03T11:41:51;3.28;;;0.40;;
75413;SDS011;64758;52.122;5.404;2023-04-03T11:44:37;1.33;;;0.20;;
75413;SDS011;64758;52.122;5.404;2023-04-03T11:47:09;0.47;;;0.20;;
75413;SDS011;64758;52.122;5.404;2023-04-03T12:21:22;1.98;;;0.38;;
75413;SDS011;64758;52.122;5.404;2023-04-03T12:26:29;1.23;;;0.40;;
75413;SDS011;64758;52.122;5.404;2023-04-03T12:32:04;2.05;;;0.20;;
75413;SDS011;64758;52.122;5.404;2023-04-03T12:37:30;1.23;;;0.30;;
75413;SDS011;64758;52.122;5.404;2023-04-03T12:48:33;0.35;;;0.20;;
75413;SDS011;64758;52.122;5.404;2023-04-03T12:51:05;0.80;;;0.20;;
75413;SDS011;64758;52.122;5.404;2023-04-03T12:53:33;1.45;;;0.40;;
75413;SDS011;64758;52.122;5.404;2023-04-03T13:01:57;0.63;;;0.20;;
75413;SDS011;64758;52.122;5.404;2023-04-03T13:04:25;1.43;;;0.30;;
75413;SDS011;64758;52.122;5.404;2023-04-03T13:06:54;2.75;;;0.55;;
75413;SDS011;64758;52.122;5.404;2023-04-03T13:09:22;1.00;;;0.30;;
75413;SDS011;64758;52.122;5.404;2023-04-03T13:11:51;1.55;;;0.38;;
75413;SDS011;64758;52.122;5.404;2023-04-03T13:14:23;2.63;;;0.40;;
75413;SDS011;64758;52.122;5.404;2023-04-03T13:19:29;0.85;;;0.20;;
75413;SDS011;64758;52.122;5.404;2023-04-03T13:22:03;1.23;;;0.43;;
75413;SDS011;64758;52.122;5.404;2023-04-03T13:24:33;1.92;;;0.65;;
75413;SDS011;64758;52.122;5.404;2023-04-03T13:27:03;1.60;;;0.30;;
75413;SDS011;64758;52.122;5.404;2023-04-03T13:29:33;2.00;;;0.40;;
75413;SDS011;64758;52.122;5.404;2023-04-03T13:32:02;1.00;;;0.30;;
75413;SDS011;64758;52.122;5.404;2023-04-03T13:34:42;2.40;;;0.40;;
75413;SDS011;64758;52.122;5.404;2023-04-03T13:37:20;1.17;;;0.30;;
75413;SDS011;64758;52.122;5.404;2023-04-03T13:40:00;1.85;;;0.30;;
75413;SDS011;64758;52.122;5.404;2023-04-03T13:42:35;2.30;;;0.43;;
75413;SDS011;64758;52.122;5.404;2023-04-03T13:45:20;3.10;;;0.45;;
75413;SDS011;64758;52.122;5.404;2023-04-03T13:47:51;2.17;;;0.38;;
75413;SDS011;64758;52.122;5.404;2023-04-03T13:50:22;1.48;;;0.30;;
75413;SDS011;64758;52.122;5.404;2023-04-03T13:52:59;1.70;;;0.30;;
75413;SDS011;64758;52.122;5.404;2023-04-03T13:55:57;1.40;;;0.30;;
75413;SDS011;64758;52.122;5.404;2023-04-03T13:58:25;0.88;;;0.30;;
75413;SDS011;64758;52.122;5.404;2023-04-03T14:01:08;1.27;;;0.43;;
75413;SDS011;64758;52.122;5.404;2023-04-03T14:03:43;1.35;;;0.28;;
75413;SDS011;64758;52.122;5.404;2023-04-03T14:06:13;2.72;;;0.30;;
75413;SDS011;64758;52.122;5.404;2023-04-03T14:08:43;1.37;;;0.40;;
75413;SDS011;64758;52.122;5.404;2023-04-03T14:11:15;1.50;;;0.35;;
75413;SDS011;64758;52.122;5.404;2023-04-03T14:13:45;2.70;;;0.70;;
75413;SDS011;64758;52.122;5.404;2023-04-03T14:16:20;2.25;;;0.35;;
75413;SDS011;64758;52.122;5.404;2023-04-03T14:18:49;1.00;;;0.30;;
75413;SDS011;64758;52.122;5.404;2023-04-03T14:21:18;1.53;;;0.40;;
75413;SDS011;64758;52.122;5.404;2023-04-03T14:23:46;5.72;;;0.40;;
75413;SDS011;64758;52.122;5.404;2023-04-03T14:26:23;0.88;;;0.30;;
75413;SDS011;64758;52.122;5.404;2023-04-03T14:28:53;1.05;;;0.30;;
75413;SDS011;64758;52.122;5.404;2023-04-03T14:31:21;1.77;;;0.40;;
75413;SDS011;64758;52.122;5.404;2023-04-03T14:33:49;3.70;;;0.60;;
75413;SDS011;64758;52.122;5.404;2023-04-03T14:36:25;1.00;;;0.30;;
75413;SDS011;64758;52.122;5.404;2023-04-03T14:38:53;1.23;;;0.30;;
75413;SDS011;64758;52.122;5.404;2023-04-03T14:41:22;1.77;;;0.50;;
75413;SDS011;64758;52.122;5.404;2023-04-03T14:43:50;2.72;;;0.70;;
75413;SDS011;64758;52.122;5.404;2023-04-03T14:46:33;2.47;;;0.60;;
75413;SDS011;64758;52.122;5.404;2023-04-03T14:49:22;2.25;;;0.50;;
75413;SDS011;64758;52.122;5.404;2023-04-03T14:51:51;2.00;;;0.60;;
75413;SDS011;64758;52.122;5.404;2023-04-03T14:54:19;1.60;;;0.65;;
75413;SDS011;64758;52.122;5.404;2023-04-03T14:56:52;1.83;;;0.65;;
75413;SDS011;64758;52.122;5.404;2023-04-03T14:59:20;4.10;;;0.70;;
75413;SDS011;64758;52.122;5.404;2023-04-03T15:01:47;2.97;;;0.85;;
75413;SDS011;64758;52.122;5.404;2023-04-03T15:04:15;2.50;;;0.98;;
75413;SDS011;64758;52.122;5.404;2023-04-03T15:06:44;2.85;;;1.15;;
75413;SDS011;64758;52.122;5.404;2023-04-03T15:09:19;3.78;;;0.90;;
75413;SDS011;64758;52.122;5.404;2023-04-03T15:11:48;1.47;;;0.70;;
75413;SDS011;64758;52.122;5.404;2023-04-03T15:14:16;2.35;;;0.93;;
75413;SDS011;64758;52.122;5.404;2023-04-03T15:17:02;6.18;;;0.73;;
75413;SDS011;64758;52.122;5.404;2023-04-03T15:19:32;1.27;;;0.60;;
75413;SDS011;64758;52.122;5.404;2023-04-03T15:22:03;2.03;;;0.80;;
75413;SDS011;64758;52.122;5.404;2023-04-03T15:24:30;2.13;;;0.80;;
75413;SDS011;64758;52.122;5.404;2023-04-03T15:26:57;2.17;;;0.80;;
75413;SDS011;64758;52.122;5.404;2023-04-03T15:29:24;2.03;;;0.88;;
75413;SDS011;64758;52.122;5.404;2023-04-03T15:31:50;1.92;;;0.82;;
75413;SDS011;64758;52.122;5.404;2023-04-03T15:34:19;2.75;;;0.90;;
75413;SDS011;64758;52.122;5.404;2023-04-03T15:36:48;3.30;;;0.80;;
75413;SDS011;64758;52.122;5.404;2023-04-03T15:39:15;2.67;;;0.95;;
75413;SDS011;64758;52.122;5.404;2023-04-03T15:41:42;2.17;;;0.88;;
75413;SDS011;64758;52.122;5.404;2023-04-03T15:44:09;1.88;;;0.80;;
75413;SDS011;64758;52.122;5.404;2023-04-03T15:46:35;2.08;;;0.98;;
75413;SDS011;64758;52.122;5.404;2023-04-03T15:49:02;2.90;;;0.97;;
75413;SDS011;64758;52.122;5.404;2023-04-03T15:51:29;1.90;;;0.98;;
75413;SDS011;64758;52.122;5.404;2023-04-03T15:53:56;2.15;;;0.90;;
75413;SDS011;64758;52.122;5.404;2023-04-03T15:56:22;3.75;;;1.17;;
75413;SDS011;64758;52.122;5.404;2023-04-03T15:58:49;2.20;;;0.90;;
75413;SDS011;64758;52.122;5.404;2023-04-03T16:01:15;3.33;;;0.87;;
75413;SDS011;64758;52.122;5.404;2023-04-03T16:03:42;1.38;;;0.80;;
75413;SDS011;64758;52.122;5.404;2023-04-03T16:06:12;1.85;;;0.88;;
75413;SDS011;64758;52.122;5.404;2023-04-03T16:08:43;1.75;;;1.00;;
75413;SDS011;64758;52.122;5.404;2023-04-03T16:11:10;2.95;;;1.63;;
75413;SDS011;64758;52.122;5.404;2023-04-03T16:13:36;1.97;;;1.17;;
75413;SDS011;64758;52.122;5.404;2023-04-03T16:16:03;1.83;;;0.70;;
75413;SDS011;64758;52.122;5.404;2023-04-03T16:18:31;2.65;;;1.33;;
75413;SDS011;64758;52.122;5.404;2023-04-03T16:20:57;2.78;;;0.85;;
75413;SDS011;64758;52.122;5.404;2023-04-03T16:23:24;2.03;;;1.20;;
75413;SDS011;64758;52.122;5.404;2023-04-03T16:25:50;2.60;;;1.10;;
75413;SDS011;64758;52.122;5.404;2023-04-03T16:28:17;2.08;;;0.93;;
75413;SDS011;64758;52.122;5.404;2023-04-03T16:30:45;4.55;;;1.40;;
75413;SDS011;64758;52.122;5.404;2023-04-03T16:33:13;3.05;;;0.98;;
75413;SDS011;64758;52.122;5.404;2023-04-03T16:35:40;2.17;;;0.90;;
75413;SDS011;64758;52.122;5.404;2023-04-03T16:38:10;2.93;;;1.10;;
75413;SDS011;64758;52.122;5.404;2023-04-03T16:40:36;2.20;;;1.10;;
75413;SDS011;64758;52.122;5.404;2023-04-03T16:43:03;1.65;;;0.80;;
75413;SDS011;64758;52.122;5.404;2023-04-03T16:45:29;1.88;;;0.80;;
75413;SDS011;64758;52.122;5.404;2023-04-03T16:47:56;3.30;;;0.80;;
75413;SDS011;64758;52.122;5.404;2023-04-03T16:50:22;3.80;;;1.40;;